sensor_id;sensor_type;location;lat;lon;timestamp;P1;durP1;ratioP1;P2;durP2;ratioP2
13252;SDS011;6693;54.370;10.132;2022-12-29T00:00:55;5.85;;;2.72;;
13252;SDS011;6693;54.370;10.132;2022-12-29T00:01:56;6.75;;;3.15;;
13252;SDS011;6693;54.370;10.132;2022-12-29T00:02:59;5.63;;;2.60;;
13252;SDS011;6693;54.370;10.132;2022-12-29T00:03:59;7.53;;;3.75;;
13252;SDS011;6693;54.370;10.132;2022-12-29T00:05:03;6.03;;;3.20;;
13252;SDS011;6693;54.370;10.132;2022-12-29T00:06:04;7.72;;;3.30;;
13252;SDS011;6693;54.370;10.132;2022-12-29T00:07:07;8.10;;;3.50;;
13252;SDS011;6693;54.370;10.132;2022-12-29T00:08:08;7.60;;;4.05;;
13252;SDS011;6693;54.370;10.132;2022-12-29T00:09:12;5.60;;;3.25;;
13252;SDS011;6693;54.370;10.132;2022-12-29T00:10:13;8.18;;;2.92;;
13252;SDS011;6693;54.370;10.132;2022-12-29T00:11:19;7.10;;;4.03;;
13252;SDS011;6693;54.370;10.132;2022-12-29T00:12:23;7.05;;;3.78;;
13252;SDS011;6693;54.370;10.132;2022-12-29T00:13:47;6.70;;;3.83;;
13252;SDS011;6693;54.370;10.132;2022-12-29T00:15:06;6.15;;;2.85;;
13252;SDS011;6693;54.370;10.132;2022-12-29T00:16:22;8.40;;;4.03;;
13252;SDS011;6693;54.370;10.132;2022-12-29T00:17:23;6.20;;;3.20;;
13252;SDS011;6693;54.370;10.132;2022-12-29T00:18:27;7.22;;;4.03;;
13252;SDS011;6693;54.370;10.132;2022-12-29T00:19:30;9.80;;;4.38;;
13252;SDS011;6693;54.370;10.132;2022-12-29T00:20:46;6.88;;;3.42;;
13252;SDS011;6693;54.370;10.132;2022-12-29T00:22:02;6.57;;;3.25;;
13252;SDS011;6693;54.370;10.132;2022-12-29T00:23:17;7.78;;;4.60;;
13252;SDS011;6693;54.370;10.132;2022-12-29T00:24:33;9.23;;;5.18;;
13252;SDS011;6693;54.370;10.132;2022-12-29T00:25:49;8.75;;;4.15;;
13252;SDS011;6693;54.370;10.132;2022-12-29T00:27:10;9.13;;;4.78;;
13252;SDS011;6693;54.370;10.132;2022-12-29T00:28:26;8.77;;;4.85;;
13252;SDS011;6693;54.370;10.132;2022-12-29T00:29:42;7.40;;;3.20;;
13252;SDS011;6693;54.370;10.132;2022-12-29T00:31:01;9.57;;;4.80;;
13252;SDS011;6693;54.370;10.132;2022-12-29T00:32:17;9.98;;;4.22;;
13252;SDS011;6693;54.370;10.132;2022-12-29T00:33:33;7.47;;;3.38;;
13252;SDS011;6693;54.370;10.132;2022-12-29T00:34:49;8.85;;;5.18;;
13252;SDS011;6693;54.370;10.132;2022-12-29T00:36:05;9.07;;;4.60;;
13252;SDS011;6693;54.370;10.132;2022-12-29T00:37:11;9.30;;;5.97;;
13252;SDS011;6693;54.370;10.132;2022-12-29T00:38:12;10.68;;;5.30;;
13252;SDS011;6693;54.370;10.132;2022-12-29T00:39:28;7.80;;;3.67;;
13252;SDS011;6693;54.370;10.132;2022-12-29T00:40:44;8.80;;;5.32;;
13252;SDS011;6693;54.370;10.132;2022-12-29T00:42:02;10.30;;;5.25;;
13252;SDS011;6693;54.370;10.132;2022-12-29T00:43:33;9.73;;;4.38;;
13252;SDS011;6693;54.370;10.132;2022-12-29T00:44:49;7.53;;;3.60;;
13252;SDS011;6693;54.370;10.132;2022-12-29T00:45:52;9.77;;;4.45;;
13252;SDS011;6693;54.370;10.132;2022-12-29T00:46:55;7.82;;;4.85;;
13252;SDS011;6693;54.370;10.132;2022-12-29T00:48:02;9.43;;;5.10;;
13252;SDS011;6693;54.370;10.132;2022-12-29T00:49:03;9.43;;;5.57;;
13252;SDS011;6693;54.370;10.132;2022-12-29T00:50:19;8.60;;;5.32;;
13252;SDS011;6693;54.370;10.132;2022-12-29T00:51:22;9.07;;;4.97;;
13252;SDS011;6693;54.370;10.132;2022-12-29T00:52:23;8.90;;;4.70;;
13252;SDS011;6693;54.370;10.132;2022-12-29T00:53:26;8.05;;;4.93;;
13252;SDS011;6693;54.370;10.132;2022-12-29T00:54:27;8.52;;;4.65;;
13252;SDS011;6693;54.370;10.132;2022-12-29T00:57:14;8.48;;;4.72;;
13252;SDS011;6693;54.370;10.132;2022-12-29T00:58:19;8.20;;;4.55;;
13252;SDS011;6693;54.370;10.132;2022-12-29T00:59:22;7.63;;;4.78;;
13252;SDS011;6693;54.370;10.132;2022-12-29T01:00:29;7.75;;;4.28;;
13252;SDS011;6693;54.370;10.132;2022-12-29T01:01:39;9.48;;;5.38;;
13252;SDS011;6693;54.370;10.132;2022-12-29T01:03:50;7.65;;;4.68;;
13252;SDS011;6693;54.370;10.132;2022-12-29T01:04:55;8.43;;;5.85;;
13252;SDS011;6693;54.370;10.132;2022-12-29T01:05:59;8.20;;;4.03;;
13252;SDS011;6693;54.370;10.132;2022-12-29T01:07:00;7.95;;;4.70;;
13252;SDS011;6693;54.370;10.132;2022-12-29T01:08:03;9.30;;;5.13;;
13252;SDS011;6693;54.370;10.132;2022-12-29T01:09:05;8.13;;;5.50;;
13252;SDS011;6693;54.370;10.132;2022-12-29T01:10:21;9.77;;;4.60;;
13252;SDS011;6693;54.370;10.132;2022-12-29T01:11:24;8.23;;;5.22;;
13252;SDS011;6693;54.370;10.132;2022-12-29T01:12:25;9.95;;;5.90;;
13252;SDS011;6693;54.370;10.132;2022-12-29T01:13:42;9.27;;;4.45;;
13252;SDS011;6693;54.370;10.132;2022-12-29T01:14:45;10.18;;;6.25;;
13252;SDS011;6693;54.370;10.132;2022-12-29T01:15:48;8.32;;;5.25;;
13252;SDS011;6693;54.370;10.132;2022-12-29T01:16:52;8.63;;;4.80;;
13252;SDS011;6693;54.370;10.132;2022-12-29T01:17:56;10.25;;;5.72;;
13252;SDS011;6693;54.370;10.132;2022-12-29T01:18:59;10.43;;;6.10;;
13252;SDS011;6693;54.370;10.132;2022-12-29T01:20:00;9.15;;;4.80;;
13252;SDS011;6693;54.370;10.132;2022-12-29T01:21:04;11.73;;;5.82;;
13252;SDS011;6693;54.370;10.132;2022-12-29T01:22:06;8.98;;;5.43;;
13252;SDS011;6693;54.370;10.132;2022-12-29T01:23:09;9.13;;;5.25;;
13252;SDS011;6693;54.370;10.132;2022-12-29T01:24:09;10.13;;;5.80;;
13252;SDS011;6693;54.370;10.132;2022-12-29T01:25:13;10.00;;;5.00;;
13252;SDS011;6693;54.370;10.132;2022-12-29T01:26:14;7.32;;;4.75;;
13252;SDS011;6693;54.370;10.132;2022-12-29T01:27:18;9.27;;;5.40;;
13252;SDS011;6693;54.370;10.132;2022-12-29T01:28:19;9.65;;;5.07;;
13252;SDS011;6693;54.370;10.132;2022-12-29T01:29:22;11.02;;;6.20;;
13252;SDS011;6693;54.370;10.132;2022-12-29T01:30:23;10.40;;;5.72;;
13252;SDS011;6693;54.370;10.132;2022-12-29T01:31:26;9.98;;;6.13;;
13252;SDS011;6693;54.370;10.132;2022-12-29T01:32:27;8.95;;;5.97;;
13252;SDS011;6693;54.370;10.132;2022-12-29T01:33:33;9.45;;;5.20;;
13252;SDS011;6693;54.370;10.132;2022-12-29T01:34:33;9.38;;;5.38;;
13252;SDS011;6693;54.370;10.132;2022-12-29T01:35:37;7.65;;;4.88;;
13252;SDS011;6693;54.370;10.132;2022-12-29T01:36:37;9.07;;;5.32;;
13252;SDS011;6693;54.370;10.132;2022-12-29T01:37:40;11.20;;;6.00;;
13252;SDS011;6693;54.370;10.132;2022-12-29T01:38:41;10.23;;;6.43;;
13252;SDS011;6693;54.370;10.132;2022-12-29T01:39:44;10.52;;;6.90;;
13252;SDS011;6693;54.370;10.132;2022-12-29T01:40:45;10.07;;;5.28;;
13252;SDS011;6693;54.370;10.132;2022-12-29T01:41:48;10.50;;;5.70;;
13252;SDS011;6693;54.370;10.132;2022-12-29T01:42:49;11.70;;;6.05;;
13252;SDS011;6693;54.370;10.132;2022-12-29T01:43:53;9.52;;;4.70;;
13252;SDS011;6693;54.370;10.132;2022-12-29T01:44:55;11.52;;;6.07;;
13252;SDS011;6693;54.370;10.132;2022-12-29T01:45:59;9.63;;;5.93;;
13252;SDS011;6693;54.370;10.132;2022-12-29T01:47:00;11.82;;;6.32;;
13252;SDS011;6693;54.370;10.132;2022-12-29T01:48:03;11.25;;;6.43;;
13252;SDS011;6693;54.370;10.132;2022-12-29T01:49:08;11.63;;;7.15;;
13252;SDS011;6693;54.370;10.132;2022-12-29T01:50:16;10.45;;;5.85;;
13252;SDS011;6693;54.370;10.132;2022-12-29T01:51:18;9.07;;;5.25;;
13252;SDS011;6693;54.370;10.132;2022-12-29T01:52:22;9.45;;;5.13;;
13252;SDS011;6693;54.370;10.132;2022-12-29T01:53:26;12.20;;;6.13;;
13252;SDS011;6693;54.370;10.132;2022-12-29T01:54:31;13.85;;;5.75;;
13252;SDS011;6693;54.370;10.132;2022-12-29T01:55:34;11.52;;;6.47;;
13252;SDS011;6693;54.370;10.132;2022-12-29T01:56:39;8.55;;;4.88;;
13252;SDS011;6693;54.370;10.132;2022-12-29T01:57:40;9.60;;;5.05;;
13252;SDS011;6693;54.370;10.132;2022-12-29T01:58:47;9.27;;;5.15;;
13252;SDS011;6693;54.370;10.132;2022-12-29T01:59:50;10.52;;;6.90;;
13252;SDS011;6693;54.370;10.132;2022-12-29T02:00:56;10.98;;;5.10;;
13252;SDS011;6693;54.370;10.132;2022-12-29T02:01:56;11.73;;;5.82;;
13252;SDS011;6693;54.370;10.132;2022-12-29T02:03:00;11.27;;;5.13;;
13252;SDS011;6693;54.370;10.132;2022-12-29T02:04:00;9.98;;;5.88;;
13252;SDS011;6693;54.370;10.132;2022-12-29T02:05:09;11.02;;;6.25;;
13252;SDS011;6693;54.370;10.132;2022-12-29T02:06:12;8.98;;;5.45;;
13252;SDS011;6693;54.370;10.132;2022-12-29T02:07:18;10.63;;;6.10;;
13252;SDS011;6693;54.370;10.132;2022-12-29T02:09:23;7.57;;;4.07;;
13252;SDS011;6693;54.370;10.132;2022-12-29T02:10:24;11.30;;;5.82;;
13252;SDS011;6693;54.370;10.132;2022-12-29T02:11:29;9.80;;;5.50;;
13252;SDS011;6693;54.370;10.132;2022-12-29T02:12:30;9.93;;;5.55;;
13252;SDS011;6693;54.370;10.132;2022-12-29T02:13:33;9.73;;;6.13;;
13252;SDS011;6693;54.370;10.132;2022-12-29T02:14:34;10.10;;;6.45;;
13252;SDS011;6693;54.370;10.132;2022-12-29T02:15:41;11.48;;;6.78;;
13252;SDS011;6693;54.370;10.132;2022-12-29T02:16:59;11.45;;;6.53;;
13252;SDS011;6693;54.370;10.132;2022-12-29T02:18:10;11.20;;;6.97;;
13252;SDS011;6693;54.370;10.132;2022-12-29T02:19:25;11.38;;;5.00;;
13252;SDS011;6693;54.370;10.132;2022-12-29T02:22:26;8.77;;;5.63;;
13252;SDS011;6693;54.370;10.132;2022-12-29T02:26:49;8.45;;;4.43;;
13252;SDS011;6693;54.370;10.132;2022-12-29T02:28:08;8.93;;;5.25;;
13252;SDS011;6693;54.370;10.132;2022-12-29T02:29:40;8.30;;;4.57;;
13252;SDS011;6693;54.370;10.132;2022-12-29T02:30:52;8.20;;;4.82;;
13252;SDS011;6693;54.370;10.132;2022-12-29T02:32:00;8.80;;;5.03;;
13252;SDS011;6693;54.370;10.132;2022-12-29T02:33:05;9.52;;;5.13;;
13252;SDS011;6693;54.370;10.132;2022-12-29T02:34:17;10.20;;;5.45;;
13252;SDS011;6693;54.370;10.132;2022-12-29T02:35:24;10.68;;;6.72;;
13252;SDS011;6693;54.370;10.132;2022-12-29T02:36:36;8.00;;;4.35;;
13252;SDS011;6693;54.370;10.132;2022-12-29T02:37:41;10.82;;;5.65;;
13252;SDS011;6693;54.370;10.132;2022-12-29T02:38:48;8.32;;;4.60;;
13252;SDS011;6693;54.370;10.132;2022-12-29T02:39:52;10.88;;;5.20;;
13252;SDS011;6693;54.370;10.132;2022-12-29T02:41:01;8.57;;;5.72;;
13252;SDS011;6693;54.370;10.132;2022-12-29T02:42:07;8.70;;;6.15;;
13252;SDS011;6693;54.370;10.132;2022-12-29T02:43:28;9.63;;;5.65;;
13252;SDS011;6693;54.370;10.132;2022-12-29T02:44:34;9.18;;;5.32;;
13252;SDS011;6693;54.370;10.132;2022-12-29T02:45:42;10.48;;;5.32;;
13252;SDS011;6693;54.370;10.132;2022-12-29T02:46:53;8.38;;;4.90;;
13252;SDS011;6693;54.370;10.132;2022-12-29T02:47:57;9.75;;;5.78;;
13252;SDS011;6693;54.370;10.132;2022-12-29T02:49:06;9.88;;;5.10;;
13252;SDS011;6693;54.370;10.132;2022-12-29T02:50:13;9.93;;;6.30;;
13252;SDS011;6693;54.370;10.132;2022-12-29T02:51:18;9.90;;;5.75;;
13252;SDS011;6693;54.370;10.132;2022-12-29T02:52:23;8.98;;;4.43;;
13252;SDS011;6693;54.370;10.132;2022-12-29T02:53:29;9.02;;;5.50;;
13252;SDS011;6693;54.370;10.132;2022-12-29T02:54:48;9.63;;;5.50;;
13252;SDS011;6693;54.370;10.132;2022-12-29T02:55:49;10.50;;;5.68;;
13252;SDS011;6693;54.370;10.132;2022-12-29T02:56:52;9.48;;;5.60;;
13252;SDS011;6693;54.370;10.132;2022-12-29T02:58:06;11.35;;;6.55;;
13252;SDS011;6693;54.370;10.132;2022-12-29T02:59:15;9.60;;;6.13;;
13252;SDS011;6693;54.370;10.132;2022-12-29T03:00:16;9.70;;;6.63;;
13252;SDS011;6693;54.370;10.132;2022-12-29T03:01:23;10.13;;;5.15;;
13252;SDS011;6693;54.370;10.132;2022-12-29T03:02:35;8.93;;;5.88;;
13252;SDS011;6693;54.370;10.132;2022-12-29T03:03:48;10.90;;;6.30;;
13252;SDS011;6693;54.370;10.132;2022-12-29T03:05:10;9.13;;;4.85;;
13252;SDS011;6693;54.370;10.132;2022-12-29T03:06:27;9.40;;;4.97;;
13252;SDS011;6693;54.370;10.132;2022-12-29T03:07:33;9.57;;;6.25;;
13252;SDS011;6693;54.370;10.132;2022-12-29T03:08:41;9.10;;;5.55;;
13252;SDS011;6693;54.370;10.132;2022-12-29T03:09:47;9.75;;;5.32;;
13252;SDS011;6693;54.370;10.132;2022-12-29T03:10:57;9.23;;;5.20;;
13252;SDS011;6693;54.370;10.132;2022-12-29T03:12:01;8.98;;;5.47;;
13252;SDS011;6693;54.370;10.132;2022-12-29T03:13:11;8.82;;;5.85;;
13252;SDS011;6693;54.370;10.132;2022-12-29T03:14:29;9.52;;;6.03;;
13252;SDS011;6693;54.370;10.132;2022-12-29T03:15:50;8.40;;;4.82;;
13252;SDS011;6693;54.370;10.132;2022-12-29T03:17:08;8.70;;;5.15;;
13252;SDS011;6693;54.370;10.132;2022-12-29T03:18:15;9.13;;;5.53;;
13252;SDS011;6693;54.370;10.132;2022-12-29T03:19:23;8.40;;;4.68;;
13252;SDS011;6693;54.370;10.132;2022-12-29T03:20:26;9.50;;;4.95;;
13252;SDS011;6693;54.370;10.132;2022-12-29T03:21:36;8.05;;;5.40;;
13252;SDS011;6693;54.370;10.132;2022-12-29T03:22:54;8.77;;;5.18;;
13252;SDS011;6693;54.370;10.132;2022-12-29T03:24:01;8.45;;;4.90;;
13252;SDS011;6693;54.370;10.132;2022-12-29T03:25:03;11.32;;;6.30;;
13252;SDS011;6693;54.370;10.132;2022-12-29T03:26:10;9.35;;;5.25;;
13252;SDS011;6693;54.370;10.132;2022-12-29T03:27:13;10.90;;;5.90;;
13252;SDS011;6693;54.370;10.132;2022-12-29T03:28:18;9.30;;;6.53;;
13252;SDS011;6693;54.370;10.132;2022-12-29T03:29:22;9.10;;;5.22;;
13252;SDS011;6693;54.370;10.132;2022-12-29T03:30:25;9.73;;;5.72;;
13252;SDS011;6693;54.370;10.132;2022-12-29T03:31:26;11.15;;;6.35;;
13252;SDS011;6693;54.370;10.132;2022-12-29T03:32:31;8.85;;;5.63;;
13252;SDS011;6693;54.370;10.132;2022-12-29T03:33:35;8.93;;;5.07;;
13252;SDS011;6693;54.370;10.132;2022-12-29T03:34:40;10.25;;;5.85;;
13252;SDS011;6693;54.370;10.132;2022-12-29T03:35:41;9.60;;;5.70;;
13252;SDS011;6693;54.370;10.132;2022-12-29T03:36:47;8.95;;;5.32;;
13252;SDS011;6693;54.370;10.132;2022-12-29T03:37:52;8.07;;;4.60;;
13252;SDS011;6693;54.370;10.132;2022-12-29T03:38:59;8.63;;;5.13;;
13252;SDS011;6693;54.370;10.132;2022-12-29T03:40:02;8.25;;;4.72;;
13252;SDS011;6693;54.370;10.132;2022-12-29T03:41:07;10.88;;;6.20;;
13252;SDS011;6693;54.370;10.132;2022-12-29T03:42:11;11.18;;;6.60;;
13252;SDS011;6693;54.370;10.132;2022-12-29T03:43:16;10.10;;;5.43;;
13252;SDS011;6693;54.370;10.132;2022-12-29T03:44:17;11.55;;;6.65;;
13252;SDS011;6693;54.370;10.132;2022-12-29T03:45:20;8.20;;;4.63;;
13252;SDS011;6693;54.370;10.132;2022-12-29T03:46:21;10.82;;;5.72;;
13252;SDS011;6693;54.370;10.132;2022-12-29T03:47:24;9.38;;;5.93;;
13252;SDS011;6693;54.370;10.132;2022-12-29T03:48:25;7.53;;;4.18;;
13252;SDS011;6693;54.370;10.132;2022-12-29T03:49:31;8.55;;;4.95;;
13252;SDS011;6693;54.370;10.132;2022-12-29T03:50:32;9.43;;;5.93;;
13252;SDS011;6693;54.370;10.132;2022-12-29T03:51:35;8.27;;;4.70;;
13252;SDS011;6693;54.370;10.132;2022-12-29T03:52:36;8.75;;;5.10;;
13252;SDS011;6693;54.370;10.132;2022-12-29T03:53:39;8.90;;;5.22;;
13252;SDS011;6693;54.370;10.132;2022-12-29T03:54:39;7.95;;;4.63;;
13252;SDS011;6693;54.370;10.132;2022-12-29T03:55:43;9.38;;;4.93;;
13252;SDS011;6693;54.370;10.132;2022-12-29T03:56:43;9.07;;;5.45;;
13252;SDS011;6693;54.370;10.132;2022-12-29T03:57:47;8.75;;;4.75;;
13252;SDS011;6693;54.370;10.132;2022-12-29T03:58:50;10.43;;;6.18;;
13252;SDS011;6693;54.370;10.132;2022-12-29T03:59:50;8.98;;;5.70;;
13252;SDS011;6693;54.370;10.132;2022-12-29T04:00:53;9.23;;;5.03;;
13252;SDS011;6693;54.370;10.132;2022-12-29T04:01:54;8.40;;;5.05;;
13252;SDS011;6693;54.370;10.132;2022-12-29T04:02:57;8.38;;;5.05;;
13252;SDS011;6693;54.370;10.132;2022-12-29T04:03:58;9.00;;;5.35;;
13252;SDS011;6693;54.370;10.132;2022-12-29T04:05:04;8.20;;;4.65;;
13252;SDS011;6693;54.370;10.132;2022-12-29T04:06:06;10.23;;;6.63;;
13252;SDS011;6693;54.370;10.132;2022-12-29T04:07:09;8.23;;;4.78;;
13252;SDS011;6693;54.370;10.132;2022-12-29T04:08:10;7.53;;;4.68;;
13252;SDS011;6693;54.370;10.132;2022-12-29T04:09:13;8.65;;;4.95;;
13252;SDS011;6693;54.370;10.132;2022-12-29T04:10:14;8.73;;;5.00;;
13252;SDS011;6693;54.370;10.132;2022-12-29T04:11:17;10.00;;;5.97;;
13252;SDS011;6693;54.370;10.132;2022-12-29T04:12:18;9.07;;;4.72;;
13252;SDS011;6693;54.370;10.132;2022-12-29T04:13:21;9.05;;;5.00;;
13252;SDS011;6693;54.370;10.132;2022-12-29T04:14:21;8.98;;;4.82;;
13252;SDS011;6693;54.370;10.132;2022-12-29T04:15:25;7.85;;;4.32;;
13252;SDS011;6693;54.370;10.132;2022-12-29T04:16:26;9.05;;;5.63;;
13252;SDS011;6693;54.370;10.132;2022-12-29T04:17:29;9.90;;;5.47;;
13252;SDS011;6693;54.370;10.132;2022-12-29T04:18:30;10.13;;;5.45;;
13252;SDS011;6693;54.370;10.132;2022-12-29T04:19:33;9.07;;;4.78;;
13252;SDS011;6693;54.370;10.132;2022-12-29T04:20:36;8.27;;;4.22;;
13252;SDS011;6693;54.370;10.132;2022-12-29T04:21:52;7.40;;;3.83;;
13252;SDS011;6693;54.370;10.132;2022-12-29T04:22:59;8.80;;;4.10;;
13252;SDS011;6693;54.370;10.132;2022-12-29T04:24:00;9.77;;;5.57;;
13252;SDS011;6693;54.370;10.132;2022-12-29T04:25:06;9.18;;;5.47;;
13252;SDS011;6693;54.370;10.132;2022-12-29T04:26:08;8.57;;;5.07;;
13252;SDS011;6693;54.370;10.132;2022-12-29T04:27:11;8.25;;;5.15;;
13252;SDS011;6693;54.370;10.132;2022-12-29T04:28:12;8.68;;;4.82;;
13252;SDS011;6693;54.370;10.132;2022-12-29T04:29:15;8.90;;;6.15;;
13252;SDS011;6693;54.370;10.132;2022-12-29T04:30:16;7.95;;;5.00;;
13252;SDS011;6693;54.370;10.132;2022-12-29T04:31:19;7.93;;;4.65;;
13252;SDS011;6693;54.370;10.132;2022-12-29T04:32:20;10.20;;;5.85;;
13252;SDS011;6693;54.370;10.132;2022-12-29T04:33:23;9.32;;;5.63;;
13252;SDS011;6693;54.370;10.132;2022-12-29T04:34:24;9.32;;;5.82;;
13252;SDS011;6693;54.370;10.132;2022-12-29T04:35:27;9.13;;;5.22;;
13252;SDS011;6693;54.370;10.132;2022-12-29T04:36:30;8.85;;;5.00;;
13252;SDS011;6693;54.370;10.132;2022-12-29T04:37:33;8.05;;;5.57;;
13252;SDS011;6693;54.370;10.132;2022-12-29T04:38:34;7.60;;;4.22;;
13252;SDS011;6693;54.370;10.132;2022-12-29T04:39:37;8.80;;;4.97;;
13252;SDS011;6693;54.370;10.132;2022-12-29T04:40:38;9.07;;;6.38;;
13252;SDS011;6693;54.370;10.132;2022-12-29T04:41:41;7.55;;;4.25;;
13252;SDS011;6693;54.370;10.132;2022-12-29T04:42:42;7.47;;;4.63;;
13252;SDS011;6693;54.370;10.132;2022-12-29T04:43:45;8.32;;;4.40;;
13252;SDS011;6693;54.370;10.132;2022-12-29T04:44:45;8.73;;;4.72;;
13252;SDS011;6693;54.370;10.132;2022-12-29T04:45:49;8.48;;;5.40;;
13252;SDS011;6693;54.370;10.132;2022-12-29T04:46:49;8.82;;;4.10;;
13252;SDS011;6693;54.370;10.132;2022-12-29T04:47:52;9.05;;;5.47;;
13252;SDS011;6693;54.370;10.132;2022-12-29T04:48:53;8.80;;;4.97;;
13252;SDS011;6693;54.370;10.132;2022-12-29T04:49:56;7.55;;;4.22;;
13252;SDS011;6693;54.370;10.132;2022-12-29T04:50:57;9.15;;;5.00;;
13252;SDS011;6693;54.370;10.132;2022-12-29T04:52:03;8.57;;;5.55;;
13252;SDS011;6693;54.370;10.132;2022-12-29T04:53:04;6.95;;;3.72;;
13252;SDS011;6693;54.370;10.132;2022-12-29T04:54:07;8.27;;;5.30;;
13252;SDS011;6693;54.370;10.132;2022-12-29T04:55:08;8.38;;;5.18;;
13252;SDS011;6693;54.370;10.132;2022-12-29T04:56:11;9.40;;;5.78;;
13252;SDS011;6693;54.370;10.132;2022-12-29T04:57:12;8.43;;;4.63;;
13252;SDS011;6693;54.370;10.132;2022-12-29T04:58:15;8.27;;;5.43;;
13252;SDS011;6693;54.370;10.132;2022-12-29T04:59:15;7.70;;;4.35;;
13252;SDS011;6693;54.370;10.132;2022-12-29T05:00:19;8.32;;;5.07;;
13252;SDS011;6693;54.370;10.132;2022-12-29T05:01:19;8.88;;;4.10;;
13252;SDS011;6693;54.370;10.132;2022-12-29T05:02:23;8.90;;;4.07;;
13252;SDS011;6693;54.370;10.132;2022-12-29T05:03:23;8.95;;;6.03;;
13252;SDS011;6693;54.370;10.132;2022-12-29T05:04:27;7.93;;;4.75;;
13252;SDS011;6693;54.370;10.132;2022-12-29T05:05:27;7.03;;;5.00;;
13252;SDS011;6693;54.370;10.132;2022-12-29T05:06:30;6.97;;;4.30;;
13252;SDS011;6693;54.370;10.132;2022-12-29T05:07:34;8.02;;;4.60;;
13252;SDS011;6693;54.370;10.132;2022-12-29T05:08:37;8.27;;;3.90;;
13252;SDS011;6693;54.370;10.132;2022-12-29T05:09:37;6.97;;;3.83;;
13252;SDS011;6693;54.370;10.132;2022-12-29T05:10:43;8.20;;;5.70;;
13252;SDS011;6693;54.370;10.132;2022-12-29T05:11:44;7.65;;;4.13;;
13252;SDS011;6693;54.370;10.132;2022-12-29T05:12:48;7.40;;;4.20;;
13252;SDS011;6693;54.370;10.132;2022-12-29T05:13:48;6.85;;;3.75;;
13252;SDS011;6693;54.370;10.132;2022-12-29T05:14:51;7.30;;;4.72;;
13252;SDS011;6693;54.370;10.132;2022-12-29T05:15:52;7.45;;;4.40;;
13252;SDS011;6693;54.370;10.132;2022-12-29T05:16:55;7.25;;;5.15;;
13252;SDS011;6693;54.370;10.132;2022-12-29T05:17:56;7.05;;;3.47;;
13252;SDS011;6693;54.370;10.132;2022-12-29T05:18:59;7.45;;;4.95;;
13252;SDS011;6693;54.370;10.132;2022-12-29T05:20:00;6.93;;;4.38;;
13252;SDS011;6693;54.370;10.132;2022-12-29T05:21:03;8.35;;;4.32;;
13252;SDS011;6693;54.370;10.132;2022-12-29T05:22:06;7.43;;;4.75;;
13252;SDS011;6693;54.370;10.132;2022-12-29T05:23:10;7.40;;;4.68;;
13252;SDS011;6693;54.370;10.132;2022-12-29T05:24:13;8.35;;;4.30;;
13252;SDS011;6693;54.370;10.132;2022-12-29T05:25:14;7.78;;;4.38;;
13252;SDS011;6693;54.370;10.132;2022-12-29T05:26:17;9.23;;;4.05;;
13252;SDS011;6693;54.370;10.132;2022-12-29T05:27:17;9.05;;;4.22;;
13252;SDS011;6693;54.370;10.132;2022-12-29T05:28:21;7.38;;;4.40;;
13252;SDS011;6693;54.370;10.132;2022-12-29T05:29:21;8.15;;;4.57;;
13252;SDS011;6693;54.370;10.132;2022-12-29T05:30:24;7.00;;;4.80;;
13252;SDS011;6693;54.370;10.132;2022-12-29T05:31:25;7.90;;;5.72;;
13252;SDS011;6693;54.370;10.132;2022-12-29T05:32:28;7.82;;;3.88;;
13252;SDS011;6693;54.370;10.132;2022-12-29T05:33:29;8.00;;;4.70;;
13252;SDS011;6693;54.370;10.132;2022-12-29T05:34:32;7.78;;;4.85;;
13252;SDS011;6693;54.370;10.132;2022-12-29T05:35:33;7.50;;;4.88;;
13252;SDS011;6693;54.370;10.132;2022-12-29T05:36:36;8.68;;;4.88;;
13252;SDS011;6693;54.370;10.132;2022-12-29T05:37:37;8.63;;;4.95;;
13252;SDS011;6693;54.370;10.132;2022-12-29T05:38:42;7.78;;;5.30;;
13252;SDS011;6693;54.370;10.132;2022-12-29T05:39:43;7.75;;;4.82;;
13252;SDS011;6693;54.370;10.132;2022-12-29T05:40:46;6.72;;;3.65;;
13252;SDS011;6693;54.370;10.132;2022-12-29T05:41:47;6.75;;;3.85;;
13252;SDS011;6693;54.370;10.132;2022-12-29T05:42:50;6.78;;;4.40;;
13252;SDS011;6693;54.370;10.132;2022-12-29T05:43:50;7.32;;;3.85;;
13252;SDS011;6693;54.370;10.132;2022-12-29T05:44:54;6.75;;;4.28;;
13252;SDS011;6693;54.370;10.132;2022-12-29T05:45:54;7.15;;;4.05;;
13252;SDS011;6693;54.370;10.132;2022-12-29T05:46:58;7.93;;;4.57;;
13252;SDS011;6693;54.370;10.132;2022-12-29T05:47:58;8.60;;;5.25;;
13252;SDS011;6693;54.370;10.132;2022-12-29T05:49:01;7.47;;;4.20;;
13252;SDS011;6693;54.370;10.132;2022-12-29T05:50:02;8.07;;;4.45;;
13252;SDS011;6693;54.370;10.132;2022-12-29T05:51:06;9.23;;;4.38;;
13252;SDS011;6693;54.370;10.132;2022-12-29T05:52:07;8.05;;;5.05;;
13252;SDS011;6693;54.370;10.132;2022-12-29T05:53:10;6.97;;;4.28;;
13252;SDS011;6693;54.370;10.132;2022-12-29T05:54:13;8.35;;;4.07;;
13252;SDS011;6693;54.370;10.132;2022-12-29T05:55:16;7.80;;;3.45;;
13252;SDS011;6693;54.370;10.132;2022-12-29T05:56:17;8.68;;;4.15;;
13252;SDS011;6693;54.370;10.132;2022-12-29T05:57:20;5.85;;;2.78;;
13252;SDS011;6693;54.370;10.132;2022-12-29T05:58:21;6.70;;;3.67;;
13252;SDS011;6693;54.370;10.132;2022-12-29T05:59:24;6.55;;;3.42;;
13252;SDS011;6693;54.370;10.132;2022-12-29T06:00:24;6.57;;;3.20;;
13252;SDS011;6693;54.370;10.132;2022-12-29T06:01:28;6.97;;;3.47;;
13252;SDS011;6693;54.370;10.132;2022-12-29T06:02:28;5.75;;;3.33;;
13252;SDS011;6693;54.370;10.132;2022-12-29T06:03:31;6.18;;;3.60;;
13252;SDS011;6693;54.370;10.132;2022-12-29T06:04:32;7.55;;;4.00;;
13252;SDS011;6693;54.370;10.132;2022-12-29T06:05:35;6.28;;;3.33;;
13252;SDS011;6693;54.370;10.132;2022-12-29T06:06:36;5.22;;;2.20;;
13252;SDS011;6693;54.370;10.132;2022-12-29T06:07:39;5.82;;;3.50;;
13252;SDS011;6693;54.370;10.132;2022-12-29T06:08:40;6.82;;;3.70;;
13252;SDS011;6693;54.370;10.132;2022-12-29T06:09:46;5.40;;;2.85;;
13252;SDS011;6693;54.370;10.132;2022-12-29T06:10:46;5.50;;;3.20;;
13252;SDS011;6693;54.370;10.132;2022-12-29T06:11:49;5.78;;;2.65;;
13252;SDS011;6693;54.370;10.132;2022-12-29T06:12:50;6.40;;;3.25;;
13252;SDS011;6693;54.370;10.132;2022-12-29T06:13:53;4.78;;;2.28;;
13252;SDS011;6693;54.370;10.132;2022-12-29T06:14:54;6.40;;;3.80;;
13252;SDS011;6693;54.370;10.132;2022-12-29T06:15:57;7.00;;;3.00;;
13252;SDS011;6693;54.370;10.132;2022-12-29T06:16:57;5.90;;;2.63;;
13252;SDS011;6693;54.370;10.132;2022-12-29T06:18:01;6.07;;;3.60;;
13252;SDS011;6693;54.370;10.132;2022-12-29T06:19:01;6.57;;;3.28;;
13252;SDS011;6693;54.370;10.132;2022-12-29T06:20:05;4.90;;;2.42;;
13252;SDS011;6693;54.370;10.132;2022-12-29T06:21:07;5.70;;;3.40;;
13252;SDS011;6693;54.370;10.132;2022-12-29T06:22:10;6.70;;;2.60;;
13252;SDS011;6693;54.370;10.132;2022-12-29T06:24:16;4.78;;;2.40;;
13252;SDS011;6693;54.370;10.132;2022-12-29T06:25:22;5.18;;;2.45;;
13252;SDS011;6693;54.370;10.132;2022-12-29T06:26:22;5.43;;;3.00;;
13252;SDS011;6693;54.370;10.132;2022-12-29T06:27:25;4.45;;;2.03;;
13252;SDS011;6693;54.370;10.132;2022-12-29T06:28:26;5.53;;;2.95;;
13252;SDS011;6693;54.370;10.132;2022-12-29T06:29:29;4.05;;;1.80;;
13252;SDS011;6693;54.370;10.132;2022-12-29T06:30:30;5.20;;;2.50;;
13252;SDS011;6693;54.370;10.132;2022-12-29T06:31:33;6.15;;;2.80;;
13252;SDS011;6693;54.370;10.132;2022-12-29T06:32:34;4.45;;;2.03;;
13252;SDS011;6693;54.370;10.132;2022-12-29T06:33:37;6.05;;;1.73;;
13252;SDS011;6693;54.370;10.132;2022-12-29T06:34:38;4.90;;;2.58;;
13252;SDS011;6693;54.370;10.132;2022-12-29T06:35:41;4.32;;;2.10;;
13252;SDS011;6693;54.370;10.132;2022-12-29T06:36:42;4.22;;;2.17;;
13252;SDS011;6693;54.370;10.132;2022-12-29T06:37:45;5.32;;;2.13;;
13252;SDS011;6693;54.370;10.132;2022-12-29T06:38:46;4.32;;;2.35;;
13252;SDS011;6693;54.370;10.132;2022-12-29T06:39:52;4.70;;;2.78;;